African Highway — 3EOD8 — position and weather

sailwx.info

Track history (hours):
 
Tides and Currents Weather Stations Pressure Air Temp Water Temp Dewpoint Dewpoint Depression Visibility Wind Speed Wind Dir Waves Ship Positions

African Highway

Last reported at 2014-Nov-26 22:33 UTC. Time now 2014-Nov-26 23:08 UTC.
Position N 53°20' E 007°05'.

Length 154.5 m; beam 27.6 m.

Type: Cargo ship. MMSI: 353633000.

Date/timePositionNaut miles runAvg speedWind from/ knotsBaromVisibWave heightAir tempDewpointWater temp
2014-Nov-26 22:33N 53°20' E 007°05'1312.6
2014-Nov-26 21:33N 53°29' E 006°50'1514.8
2014-Nov-26 20:33N 53°37' E 006°29'1110.5
2014-Nov-26 19:33N 53°38' E 006°12'1211.8
2014-Nov-26 18:33N 53°36' E 005°52'1514.7
2014-Nov-26 17:34N 53°34' E 005°28'1514.6
2014-Nov-26 16:34N 53°29' E 005°05'1414.4
2014-Nov-26 15:34N 53°22' E 004°43'1615.5
2014-Nov-26 14:33N 53°09' E 004°30'1615.5
2014-Nov-26 13:32N 52°55' E 004°18'1515.2
2014-Nov-26 12:33N 52°43' E 004°03'1514.7
2014-Nov-26 11:30N 52°32' E 003°45'1413.9
2014-Nov-26 10:29N 52°22' E 003°29'1514.3
2014-Nov-26 09:27N 52°11' E 003°12'1414.8
2014-Nov-26 08:29N 52°00' E 002°57'2115.6
2014-Nov-26 07:10N 51°45' E 002°35'1016.0
2014-Nov-26 06:32N 51°37' E 002°25'1616.3
2014-Nov-26 05:34N 51°23' E 002°11'1616.1
2014-Nov-26 04:33N 51°10' E 001°57'1716.9
2014-Nov-26 03:33N 50°59' E 001°36'  
2014-Nov-23 04:33N 38°30' W 009°29'1514.6
2014-Nov-23 03:33N 38°21' W 009°15'1413.8
2014-Nov-23 02:33N 38°27' W 008°59'7 1.3
2014-Nov-22 21:28N 38°31' W 008°52'0 0.0
2014-Nov-22 20:22N 38°31' W 008°52'0 0.0
2014-Nov-22 19:28N 38°31' W 008°52'0 0.0
2014-Nov-22 18:28N 38°31' W 008°52'0 0.0
2014-Nov-22 16:28N 38°31' W 008°52'0 0.0
2014-Nov-22 14:19N 38°31' W 008°52'0 0.0
2014-Nov-22 11:33N 38°31' W 008°52'8 7.9
2014-Nov-22 10:33N 38°26' W 008°60'2 2.2
2014-Nov-22 09:33N 38°24' W 009°02'7 7.4
2014-Nov-22 08:33N 38°21' W 009°11'6 6.3
2014-Nov-22 07:33N 38°21' W 009°19'1212.2
2014-Nov-22 06:33N 38°26' W 009°33'2016.4
2014-Nov-22 05:21N 38°32' W 009°57'1514.3
2014-Nov-22 04:20N 38°45' W 010°05'74115.2
2014-Nov-20 03:33N 49°60' W 002°53'8316.4
2014-Nov-19 22:30N 50°21' W 000°48'3115.8
2014-Nov-19 20:33N 50°28' W 000°02'1313.5
2014-Nov-19 19:34N 50°33' E 000°18'1413.8
2014-Nov-19 18:34N 50°38' E 000°38'1514.8
2014-Nov-19 17:34N 50°47' E 000°57'1616.4
2014-Nov-19 16:34N 50°58' E 001°16'1616.3
2014-Nov-19 15:33N 51°10' E 001°34'1312.8
2014-Nov-19 14:34N 51°23' E 001°34'1312.7
2014-Nov-19 13:33N 51°29' E 001°17'1615.5
2014-Nov-19 12:33N 51°29' E 000°52'5 5.0
2014-Nov-19 11:31N 51°26' E 000°44'0 0.0
2014-Nov-19 10:31N 51°26' E 000°44'0 0.0
2014-Nov-19 09:31N 51°26' E 000°44'0 0.0
2014-Nov-19 08:31N 51°26' E 000°44'0 0.0
2014-Nov-19 07:31N 51°26' E 000°44'0 0.0
2014-Nov-19 06:31N 51°26' E 000°44'0 0.0
2014-Nov-19 05:31N 51°26' E 000°44'0 0.0
2014-Nov-19 04:31N 51°26' E 000°44'0 0.0
2014-Nov-19 03:31N 51°26' E 000°44'0 0.0
2014-Nov-19 02:31N 51°26' E 000°44'0 0.0
2014-Nov-19 01:31N 51°26' E 000°44'0 0.0
2014-Nov-19 00:31N 51°26' E 000°44'0 0.0
2014-Nov-18 23:31N 51°26' E 000°44'0 0.0
2014-Nov-18 22:31N 51°26' E 000°44'0 0.0
2014-Nov-18 21:31N 51°26' E 000°44'0 0.2
2014-Nov-18 20:34N 51°26' E 000°44'1111.0
2014-Nov-18 19:33N 51°29' E 001°01'1212.5
2014-Nov-18 18:33N 51°28' E 001°21'7 7.2
2014-Nov-18 17:33N 51°27' E 001°32'8 8.5
2014-Nov-18 16:33N 51°31' E 001°43'7 6.8
2014-Nov-18 15:33N 51°33' E 001°54'1514.6
2014-Nov-18 14:33N 51°41' E 002°14'13314.8
2014-Nov-18 05:33N 53°24' E 004°33'1414.2
2014-Nov-18 04:34N 53°32' E 004°53'1414.4
2014-Nov-18 03:34N 53°36' E 005°16'1414.3
2014-Nov-18 02:33N 53°41' E 005°39'1212.3
2014-Nov-18 01:33N 53°42' E 005°60'1313.1
2014-Nov-18 00:33N 53°38' E 006°21'1413.8
2014-Nov-17 23:33N 53°33' E 006°42'1414.2
2014-Nov-17 22:33N 53°22' E 006°58'7 7.3
2014-Nov-17 21:32N 53°20' E 007°10'0 0.0
2014-Nov-17 20:32N 53°20' E 007°10'0 0.0
2014-Nov-17 19:32N 53°20' E 007°10'0 0.0
2014-Nov-17 18:32N 53°20' E 007°10'0 0.0
2014-Nov-17 17:32N 53°20' E 007°10'0 0.0
2014-Nov-17 16:32N 53°20' E 007°10'0 0.0
2014-Nov-17 15:32N 53°20' E 007°10'0 0.0
2014-Nov-17 14:32N 53°20' E 007°10'0 0.0
2014-Nov-17 13:32N 53°20' E 007°10'0 0.0
2014-Nov-17 12:32N 53°20' E 007°10'0 0.0
2014-Nov-17 11:32N 53°20' E 007°10'0 0.0
2014-Nov-17 10:32N 53°20' E 007°10'0 0.0
2014-Nov-17 09:32N 53°20' E 007°10'0 0.0
2014-Nov-17 08:32N 53°20' E 007°10'0 0.0
2014-Nov-17 07:32N 53°20' E 007°10'0 0.0
2014-Nov-17 06:32N 53°20' E 007°10'0 0.0
2014-Nov-17 05:32N 53°20' E 007°10'0 0.0
2014-Nov-17 04:32N 53°20' E 007°10'0 0.0
2014-Nov-17 03:32N 53°20' E 007°10'0 0.0
2014-Nov-17 02:32N 53°20' E 007°10'0 0.0
2014-Nov-17 01:32N 53°20' E 007°10'0 0.0
2014-Nov-17 00:32N 53°20' E 007°10'0 0.0
2014-Nov-16 23:32N 53°20' E 007°10'  
Track history (hours):
 
Tides and Currents Weather Stations Pressure Air Temp Water Temp Dewpoint Dewpoint Depression Visibility Wind Speed Wind Dir Waves Ship Positions

African Highway

Last reported at 2014-Nov-26 22:33 UTC. Time now 2014-Nov-26 23:08 UTC.
Position N 53°20' E 007°05'.

Length 154.5 m; beam 27.6 m.

Type: Cargo ship. MMSI: 353633000.

Date/timePositionNaut miles runAvg speedWind from/ knotsBaromVisibWave heightAir tempDewpointWater temp
2014-Nov-26 22:33N 53°20' E 007°05'1312.6
2014-Nov-26 21:33N 53°29' E 006°50'1514.8
2014-Nov-26 20:33N 53°37' E 006°29'1110.5
2014-Nov-26 19:33N 53°38' E 006°12'1211.8
2014-Nov-26 18:33N 53°36' E 005°52'1514.7
2014-Nov-26 17:34N 53°34' E 005°28'1514.6
2014-Nov-26 16:34N 53°29' E 005°05'1414.4
2014-Nov-26 15:34N 53°22' E 004°43'1615.5
2014-Nov-26 14:33N 53°09' E 004°30'1615.5
2014-Nov-26 13:32N 52°55' E 004°18'1515.2
2014-Nov-26 12:33N 52°43' E 004°03'1514.7
2014-Nov-26 11:30N 52°32' E 003°45'1413.9
2014-Nov-26 10:29N 52°22' E 003°29'1514.3
2014-Nov-26 09:27N 52°11' E 003°12'1414.8
2014-Nov-26 08:29N 52°00' E 002°57'2115.6
2014-Nov-26 07:10N 51°45' E 002°35'1016.0
2014-Nov-26 06:32N 51°37' E 002°25'1616.3
2014-Nov-26 05:34N 51°23' E 002°11'1616.1
2014-Nov-26 04:33N 51°10' E 001°57'1716.9
2014-Nov-26 03:33N 50°59' E 001°36'  
2014-Nov-23 04:33N 38°30' W 009°29'1514.6
2014-Nov-23 03:33N 38°21' W 009°15'1413.8
2014-Nov-23 02:33N 38°27' W 008°59'7 1.3
2014-Nov-22 21:28N 38°31' W 008°52'0 0.0
2014-Nov-22 20:22N 38°31' W 008°52'0 0.0
2014-Nov-22 19:28N 38°31' W 008°52'0 0.0
2014-Nov-22 18:28N 38°31' W 008°52'0 0.0
2014-Nov-22 16:28N 38°31' W 008°52'0 0.0
2014-Nov-22 14:19N 38°31' W 008°52'0 0.0
2014-Nov-22 11:33N 38°31' W 008°52'8 7.9
2014-Nov-22 10:33N 38°26' W 008°60'2 2.2
2014-Nov-22 09:33N 38°24' W 009°02'7 7.4
2014-Nov-22 08:33N 38°21' W 009°11'6 6.3
2014-Nov-22 07:33N 38°21' W 009°19'1212.2
2014-Nov-22 06:33N 38°26' W 009°33'2016.4
2014-Nov-22 05:21N 38°32' W 009°57'1514.3
2014-Nov-22 04:20N 38°45' W 010°05'74115.2
2014-Nov-20 03:33N 49°60' W 002°53'8316.4
2014-Nov-19 22:30N 50°21' W 000°48'3115.8
2014-Nov-19 20:33N 50°28' W 000°02'1313.5
2014-Nov-19 19:34N 50°33' E 000°18'1413.8
2014-Nov-19 18:34N 50°38' E 000°38'1514.8
2014-Nov-19 17:34N 50°47' E 000°57'1616.4
2014-Nov-19 16:34N 50°58' E 001°16'1616.3
2014-Nov-19 15:33N 51°10' E 001°34'1312.8
2014-Nov-19 14:34N 51°23' E 001°34'1312.7
2014-Nov-19 13:33N 51°29' E 001°17'1615.5
2014-Nov-19 12:33N 51°29' E 000°52'5 5.0
2014-Nov-19 11:31N 51°26' E 000°44'0 0.0
2014-Nov-19 10:31N 51°26' E 000°44'0 0.0
2014-Nov-19 09:31N 51°26' E 000°44'0 0.0
2014-Nov-19 08:31N 51°26' E 000°44'0 0.0
2014-Nov-19 07:31N 51°26' E 000°44'0 0.0
2014-Nov-19 06:31N 51°26' E 000°44'0 0.0
2014-Nov-19 05:31N 51°26' E 000°44'0 0.0
2014-Nov-19 04:31N 51°26' E 000°44'0 0.0
2014-Nov-19 03:31N 51°26' E 000°44'0 0.0
2014-Nov-19 02:31N 51°26' E 000°44'0 0.0
2014-Nov-19 01:31N 51°26' E 000°44'0 0.0
2014-Nov-19 00:31N 51°26' E 000°44'0 0.0
2014-Nov-18 23:31N 51°26' E 000°44'0 0.0
2014-Nov-18 22:31N 51°26' E 000°44'0 0.0
2014-Nov-18 21:31N 51°26' E 000°44'0 0.2
2014-Nov-18 20:34N 51°26' E 000°44'1111.0
2014-Nov-18 19:33N 51°29' E 001°01'1212.5
2014-Nov-18 18:33N 51°28' E 001°21'7 7.2
2014-Nov-18 17:33N 51°27' E 001°32'8 8.5
2014-Nov-18 16:33N 51°31' E 001°43'7 6.8
2014-Nov-18 15:33N 51°33' E 001°54'1514.6
2014-Nov-18 14:33N 51°41' E 002°14'13314.8
2014-Nov-18 05:33N 53°24' E 004°33'1414.2
2014-Nov-18 04:34N 53°32' E 004°53'1414.4
2014-Nov-18 03:34N 53°36' E 005°16'1414.3
2014-Nov-18 02:33N 53°41' E 005°39'1212.3
2014-Nov-18 01:33N 53°42' E 005°60'1313.1
2014-Nov-18 00:33N 53°38' E 006°21'1413.8
2014-Nov-17 23:33N 53°33' E 006°42'1414.2
2014-Nov-17 22:33N 53°22' E 006°58'7 7.3
2014-Nov-17 21:32N 53°20' E 007°10'0 0.0
2014-Nov-17 20:32N 53°20' E 007°10'0 0.0
2014-Nov-17 19:32N 53°20' E 007°10'0 0.0
2014-Nov-17 18:32N 53°20' E 007°10'0 0.0
2014-Nov-17 17:32N 53°20' E 007°10'0 0.0
2014-Nov-17 16:32N 53°20' E 007°10'0 0.0
2014-Nov-17 15:32N 53°20' E 007°10'0 0.0
2014-Nov-17 14:32N 53°20' E 007°10'0 0.0
2014-Nov-17 13:32N 53°20' E 007°10'0 0.0
2014-Nov-17 12:32N 53°20' E 007°10'0 0.0
2014-Nov-17 11:32N 53°20' E 007°10'0 0.0
2014-Nov-17 10:32N 53°20' E 007°10'0 0.0
2014-Nov-17 09:32N 53°20' E 007°10'0 0.0
2014-Nov-17 08:32N 53°20' E 007°10'0 0.0
2014-Nov-17 07:32N 53°20' E 007°10'0 0.0
2014-Nov-17 06:32N 53°20' E 007°10'0 0.0
2014-Nov-17 05:32N 53°20' E 007°10'0 0.0
2014-Nov-17 04:32N 53°20' E 007°10'0 0.0
2014-Nov-17 03:32N 53°20' E 007°10'0 0.0
2014-Nov-17 02:32N 53°20' E 007°10'0 0.0
2014-Nov-17 01:32N 53°20' E 007°10'0 0.0
2014-Nov-17 00:32N 53°20' E 007°10'0 0.0
2014-Nov-16 23:32N 53°20' E 007°10'  

Dump ship's entire track history